Time;durP1;ratioP1;P1;durP2;ratioP2;P2;SDS_P1;SDS_P2;PMS_P1;PMS_P2;Temp;Humidity;BMP_temperature;BMP_pressure;BME280_temperature;BME280_humidity;BME280_pressure;Samples;Min_cycle;Max_cycle;Signal;HPM_P1;HPM_P2
2022/07/02 00:01:19;;;;;;;10.02;7.90;;;14.80;99.90;;;;;;4975105;28;20201;-84
2022/07/02 00:03:52;;;;;;;13.70;8.10;;;14.80;99.90;;;;;;4975001;28;20189;-83
2022/07/02 00:06:20;;;;;;;15.77;8.07;;;14.80;99.90;;;;;;4975112;28;20193;-83
2022/07/02 00:08:46;;;;;;;12.55;7.88;;;14.80;99.90;;;;;;4974945;28;20224;-82
2022/07/02 00:11:15;;;;;;;11.55;7.47;;;14.80;99.90;;;;;;4974320;28;20235;-83
2022/07/02 00:13:41;;;;;;;16.40;7.55;;;14.80;99.90;;;;;;4975831;28;20195;-83
2022/07/02 00:16:11;;;;;;;11.48;7.72;;;14.70;99.90;;;;;;4976343;28;20231;-83
2022/07/02 00:18:36;;;;;;;9.60;7.88;;;14.70;99.90;;;;;;4976147;28;20584;-83
2022/07/02 00:21:03;;;;;;;12.43;8.00;;;14.70;99.90;;;;;;4975783;28;20264;-83
2022/07/02 00:23:29;;;;;;;11.10;8.00;;;14.60;99.90;;;;;;4975279;28;20184;-82
2022/07/02 00:26:07;;;;;;;10.13;7.18;;;14.70;99.90;;;;;;4975493;28;20271;-83
2022/07/02 00:28:36;;;;;;;10.77;7.35;;;14.60;99.90;;;;;;4974586;28;20212;-84
2022/07/02 00:31:02;;;;;;;13.95;7.68;;;14.50;99.90;;;;;;4974847;28;20189;-83
2022/07/02 00:33:33;;;;;;;13.18;7.63;;;14.50;99.90;;;;;;4976437;28;20211;-84
2022/07/02 00:35:59;;;;;;;10.75;7.63;;;14.50;99.90;;;;;;4975376;28;20242;-83
2022/07/02 00:38:25;;;;;;;13.68;7.57;;;14.50;99.90;;;;;;4974304;28;20220;-83
2022/07/02 00:40:52;;;;;;;13.88;7.82;;;14.50;99.90;;;;;;4974802;28;20697;-83
2022/07/02 00:43:20;;;;;;;11.30;7.10;;;14.40;99.90;;;;;;4974922;28;20188;-83
2022/07/02 00:45:46;;;;;;;16.40;7.82;;;14.40;99.90;;;;;;4974773;28;20184;-83
2022/07/02 00:48:15;;;;;;;15.02;6.85;;;14.40;99.90;;;;;;4975955;28;20212;-84
2022/07/02 00:50:41;;;;;;;12.25;7.43;;;14.40;99.90;;;;;;4975945;28;20627;-84
2022/07/02 00:53:07;;;;;;;12.18;7.03;;;14.30;99.90;;;;;;4975096;28;20197;-84
2022/07/02 00:55:32;;;;;;;12.75;7.75;;;14.30;99.90;;;;;;4974447;28;20507;-84
2022/07/02 00:57:59;;;;;;;12.68;7.10;;;14.40;99.90;;;;;;4973251;28;20185;-84
2022/07/02 01:00:25;;;;;;;16.17;8.02;;;14.30;99.90;;;;;;4974938;28;20195;-84
2022/07/02 01:02:52;;;;;;;14.05;7.45;;;14.30;99.90;;;;;;4974581;28;20189;-84
2022/07/02 01:05:22;;;;;;;16.63;7.80;;;14.30;99.90;;;;;;4973986;28;20191;-84
2022/07/02 01:10:16;;;;;;;17.13;7.60;;;14.30;99.90;;;;;;4974897;28;20208;-83
2022/07/02 01:10:45;;;;;;;12.77;7.57;;;14.20;99.90;;;;;;4968634;28;20229;-84
2022/07/02 01:13:12;;;;;;;12.52;7.10;;;14.20;99.90;;;;;;4974392;28;20176;-83
2022/07/02 01:15:39;;;;;;;10.23;7.03;;;14.10;99.90;;;;;;4974946;28;20248;-83
2022/07/02 01:18:05;;;;;;;12.75;7.75;;;14.10;99.90;;;;;;4973844;28;20240;-84
2022/07/02 01:20:31;;;;;;;18.30;7.75;;;14.10;99.90;;;;;;4973578;28;20192;-84
2022/07/02 01:22:56;;;;;;;12.02;7.72;;;14.10;99.90;;;;;;4974771;28;20258;-85
2022/07/02 01:25:22;;;;;;;14.60;6.75;;;14.00;99.90;;;;;;4974373;28;20205;-84
2022/07/02 01:27:48;;;;;;;13.50;7.05;;;14.00;99.90;;;;;;4973604;28;20212;-84
2022/07/02 01:30:14;;;;;;;12.80;7.35;;;14.00;99.90;;;;;;4971909;28;20196;-84
2022/07/02 01:32:40;;;;;;;11.02;6.95;;;14.00;99.90;;;;;;4963111;28;20207;-84
2022/07/02 01:35:10;;;;;;;9.23;7.20;;;14.00;99.90;;;;;;4969658;28;20188;-85
2022/07/02 01:37:40;;;;;;;11.23;6.95;;;13.90;99.90;;;;;;4972878;28;20176;-85
2022/07/02 01:40:07;;;;;;;9.23;7.45;;;13.90;99.90;;;;;;4973038;28;20184;-85
2022/07/02 01:42:33;;;;;;;10.27;6.80;;;13.90;99.90;;;;;;4973150;28;20622;-84
2022/07/02 01:44:59;;;;;;;8.68;7.18;;;13.90;99.90;;;;;;4973307;28;20203;-84
2022/07/02 01:47:25;;;;;;;9.82;6.47;;;13.90;99.90;;;;;;4973702;28;20191;-86
2022/07/02 01:49:50;;;;;;;11.18;7.22;;;13.90;99.90;;;;;;4974743;28;20606;-84
2022/07/02 01:52:18;;;;;;;13.13;7.07;;;13.90;99.90;;;;;;4972594;28;20215;-87
2022/07/02 01:54:44;;;;;;;10.30;7.05;;;13.80;99.90;;;;;;4982394;28;20192;-87
2022/07/02 01:57:10;;;;;;;10.38;6.55;;;13.80;99.90;;;;;;4975022;28;20169;-87
2022/07/02 01:59:36;;;;;;;13.10;7.38;;;13.80;99.90;;;;;;4974891;28;20211;-88
2022/07/02 02:02:04;;;;;;;11.88;6.15;;;13.90;99.90;;;;;;4957136;28;20185;-89
2022/07/02 02:04:30;;;;;;;9.68;6.28;;;13.90;99.90;;;;;;4965219;28;20199;-87
2022/07/02 02:06:56;;;;;;;11.05;6.05;;;13.90;99.90;;;;;;4975836;28;20168;-87
2022/07/02 02:09:22;;;;;;;10.80;6.13;;;13.90;99.90;;;;;;4974021;28;20683;-88
2022/07/02 02:11:48;;;;;;;9.63;6.10;;;13.90;99.90;;;;;;4974072;28;20180;-88
2022/07/02 02:14:14;;;;;;;8.88;5.70;;;13.90;99.90;;;;;;4975443;28;20185;-88
2022/07/02 02:16:39;;;;;;;8.00;6.43;;;13.90;99.90;;;;;;4975700;28;20176;-85
2022/07/02 02:19:06;;;;;;;10.25;5.88;;;13.90;99.90;;;;;;4969823;28;20189;-84
2022/07/02 02:21:32;;;;;;;11.80;6.20;;;13.80;99.90;;;;;;4969177;28;20188;-84
2022/07/02 02:23:58;;;;;;;11.77;5.80;;;13.80;99.90;;;;;;4973170;28;20188;-85
2022/07/02 02:26:24;;;;;;;10.32;6.20;;;13.90;99.90;;;;;;4974794;28;20267;-84
2022/07/02 02:28:50;;;;;;;10.52;5.78;;;13.80;99.90;;;;;;4973121;28;20314;-84
2022/07/02 02:31:16;;;;;;;10.63;6.47;;;13.80;99.90;;;;;;4974378;28;20303;-85
2022/07/02 02:33:42;;;;;;;14.00;6.00;;;13.80;99.90;;;;;;4966593;28;20190;-86
2022/07/02 02:36:08;;;;;;;10.18;6.07;;;13.80;99.90;;;;;;4973742;28;20176;-85
2022/07/02 02:38:36;;;;;;;8.95;5.88;;;13.70;99.90;;;;;;4974297;28;20281;-87
2022/07/02 02:41:07;;;;;;;6.82;5.38;;;13.70;99.90;;;;;;4973404;28;20180;-89
2022/07/02 02:43:36;;;;;;;11.82;6.20;;;13.70;99.90;;;;;;4974335;28;20220;-86
2022/07/02 02:46:03;;;;;;;10.55;5.25;;;13.70;99.90;;;;;;4970357;28;20263;-87
2022/07/02 02:48:29;;;;;;;10.13;5.78;;;13.60;99.90;;;;;;4965364;28;20603;-85
2022/07/02 02:50:57;;;;;;;10.35;5.60;;;13.60;99.90;;;;;;4973506;28;20195;-84
2022/07/02 02:53:22;;;;;;;9.48;5.35;;;13.50;99.90;;;;;;4974485;28;20230;-84
2022/07/02 02:55:48;;;;;;;13.25;5.57;;;13.50;99.90;;;;;;4975943;28;20196;-85
2022/07/02 02:58:14;;;;;;;11.07;5.82;;;13.50;99.90;;;;;;4976752;28;20690;-84
2022/07/02 03:00:40;;;;;;;12.40;5.18;;;13.50;99.90;;;;;;4977650;28;20188;-84
2022/07/02 03:03:06;;;;;;;9.93;5.40;;;13.50;99.90;;;;;;4977336;28;20188;-85
2022/07/02 03:05:31;;;;;;;9.07;5.47;;;13.50;99.90;;;;;;4974161;28;22074;-85
2022/07/02 03:07:57;;;;;;;10.30;5.65;;;13.50;99.90;;;;;;4975356;28;20561;-85
2022/07/02 03:10:23;;;;;;;9.10;5.15;;;13.40;99.90;;;;;;4976039;28;20282;-85
2022/07/02 03:12:49;;;;;;;8.32;4.88;;;13.40;99.90;;;;;;4976755;28;20224;-84
2022/07/02 03:15:15;;;;;;;8.70;4.97;;;13.40;99.90;;;;;;4976710;28;20191;-85
2022/07/02 03:17:41;;;;;;;12.40;5.45;;;13.40;99.90;;;;;;4977805;28;20185;-85
2022/07/02 03:20:07;;;;;;;17.83;5.72;;;13.40;99.90;;;;;;4976842;28;20173;-88
2022/07/02 03:22:33;;;;;;;19.42;6.22;;;13.40;99.90;;;;;;4976803;28;20177;-87
2022/07/02 03:24:59;;;;;;;12.60;5.60;;;13.40;99.90;;;;;;4976377;28;20198;-88
2022/07/02 03:27:25;;;;;;;8.68;4.68;;;13.40;99.90;;;;;;4976804;28;20219;-87
2022/07/02 03:29:51;;;;;;;13.52;4.78;;;13.40;99.90;;;;;;4957476;29;20220;-84
2022/07/02 03:32:18;;;;;;;10.25;5.10;;;13.40;99.90;;;;;;4969802;28;20248;-85
2022/07/02 03:34:43;;;;;;;13.30;5.13;;;13.50;99.90;;;;;;4977550;28;20263;-85
2022/07/02 03:37:10;;;;;;;8.90;4.55;;;13.50;99.90;;;;;;4975839;28;20307;-86
2022/07/02 03:39:35;;;;;;;16.58;4.80;;;13.40;99.90;;;;;;4976532;28;20190;-85
2022/07/02 03:42:01;;;;;;;10.38;5.13;;;13.40;99.90;;;;;;4976058;28;20275;-85
2022/07/02 03:44:27;;;;;;;11.35;5.18;;;13.40;99.90;;;;;;4976549;28;20191;-84
2022/07/02 03:46:52;;;;;;;13.25;4.80;;;13.40;99.90;;;;;;4976825;28;20191;-84
2022/07/02 03:49:18;;;;;;;10.38;5.05;;;13.40;99.90;;;;;;4958918;28;20221;-86
2022/07/02 03:51:44;;;;;;;11.63;4.70;;;13.40;99.90;;;;;;4980904;28;20223;-86
2022/07/02 03:54:09;;;;;;;12.05;5.00;;;13.30;99.90;;;;;;4975997;28;20199;-85
2022/07/02 03:56:35;;;;;;;10.38;4.85;;;13.30;99.90;;;;;;4975831;28;20208;-87
2022/07/02 03:59:01;;;;;;;6.25;4.63;;;13.30;99.90;;;;;;4977307;28;20275;-88
2022/07/02 04:01:26;;;;;;;7.18;4.00;;;13.30;99.90;;;;;;4975679;28;20188;-87
2022/07/02 04:03:53;;;;;;;9.25;5.05;;;13.30;99.90;;;;;;4975192;28;20534;-86
2022/07/02 04:06:19;;;;;;;17.00;5.60;;;13.40;99.90;;;;;;4975827;28;20572;-86
2022/07/02 04:08:44;;;;;;;8.20;4.45;;;13.40;99.90;;;;;;4976523;28;20220;-85
2022/07/02 04:11:10;;;;;;;10.50;4.68;;;13.40;99.90;;;;;;4976412;28;20224;-85
2022/07/02 04:13:36;;;;;;;9.68;5.50;;;13.40;99.90;;;;;;4976064;28;20203;-85
2022/07/02 04:16:01;;;;;;;10.90;4.53;;;13.40;99.90;;;;;;4972249;28;20228;-85
2022/07/02 04:18:27;;;;;;;12.23;4.80;;;13.40;99.90;;;;;;4969738;28;20192;-85
2022/07/02 04:20:53;;;;;;;9.90;5.20;;;13.40;99.90;;;;;;4974859;28;20714;-86
2022/07/02 04:23:19;;;;;;;9.30;4.70;;;13.50;99.90;;;;;;4976752;28;20184;-85
2022/07/02 04:25:44;;;;;;;9.05;4.93;;;13.50;99.90;;;;;;4976247;28;20191;-85
2022/07/02 04:28:12;;;;;;;10.48;4.95;;;13.50;99.90;;;;;;4975243;28;20563;-85
2022/07/02 04:30:37;;;;;;;8.68;4.88;;;13.60;99.90;;;;;;4975385;28;20191;-85
2022/07/02 04:33:04;;;;;;;14.10;4.65;;;13.70;99.90;;;;;;4974798;28;20185;-85
2022/07/02 04:35:30;;;;;;;10.57;4.57;;;13.70;99.90;;;;;;4975211;28;20211;-87
2022/07/02 04:37:56;;;;;;;9.93;4.55;;;13.70;99.90;;;;;;4973947;28;20185;-88
2022/07/02 04:40:22;;;;;;;8.45;4.45;;;13.80;99.90;;;;;;4975525;28;20176;-86
2022/07/02 04:42:48;;;;;;;8.65;4.80;;;13.90;99.90;;;;;;4972566;28;20696;-86
2022/07/02 04:45:13;;;;;;;14.45;4.82;;;14.00;99.90;;;;;;4975717;28;20571;-86
2022/07/02 04:47:39;;;;;;;10.00;4.13;;;14.10;99.90;;;;;;4973547;28;20632;-83
2022/07/02 04:50:05;;;;;;;6.88;3.95;;;14.20;99.90;;;;;;4973819;28;20194;-83
2022/07/02 04:52:31;;;;;;;7.32;4.10;;;14.40;99.90;;;;;;4974961;28;20224;-83
2022/07/02 04:54:57;;;;;;;7.35;4.18;;;14.50;99.90;;;;;;4974906;28;20204;-84
2022/07/02 04:57:22;;;;;;;7.32;4.05;;;14.60;99.90;;;;;;4973297;28;20195;-84
2022/07/02 04:59:48;;;;;;;5.80;4.00;;;14.70;99.90;;;;;;4974899;28;20191;-84
2022/07/02 05:02:14;;;;;;;5.30;3.83;;;14.70;99.90;;;;;;4973851;28;20714;-84
2022/07/02 05:04:40;;;;;;;9.75;3.40;;;14.80;99.90;;;;;;4973892;28;20188;-84
2022/07/02 05:07:06;;;;;;;12.70;4.28;;;14.90;99.90;;;;;;4973688;28;20522;-83
2022/07/02 05:09:32;;;;;;;7.95;3.83;;;15.00;99.90;;;;;;4973892;28;20247;-83
2022/07/02 05:11:58;;;;;;;6.75;3.60;;;15.00;99.90;;;;;;4973992;28;20184;-83
2022/07/02 05:14:24;;;;;;;5.10;3.60;;;15.10;99.90;;;;;;4972836;28;20192;-83
2022/07/02 05:16:49;;;;;;;7.90;3.50;;;15.10;99.90;;;;;;4975494;28;20619;-84
2022/07/02 05:19:15;;;;;;;7.13;3.70;;;15.20;99.90;;;;;;4972514;28;20195;-83
2022/07/02 05:21:42;;;;;;;7.57;3.70;;;15.20;99.90;;;;;;4975523;28;20177;-83
2022/07/02 05:24:08;;;;;;;8.23;3.72;;;15.30;99.90;;;;;;4973245;28;20572;-83
2022/07/02 05:26:34;;;;;;;5.88;3.15;;;15.30;99.90;;;;;;4974153;28;20196;-83
2022/07/02 05:28:59;;;;;;;6.60;4.30;;;15.30;99.90;;;;;;4973861;28;20675;-83
2022/07/02 05:31:25;;;;;;;5.10;3.80;;;15.30;99.90;;;;;;4974101;28;20189;-83
2022/07/02 05:33:51;;;;;;;10.77;4.10;;;15.40;99.90;;;;;;4971443;28;20524;-84
2022/07/02 05:36:16;;;;;;;4.18;3.25;;;15.40;99.90;;;;;;4971152;28;20663;-83
2022/07/02 05:38:42;;;;;;;7.25;3.80;;;15.50;99.90;;;;;;4974799;28;20224;-83
2022/07/02 05:41:08;;;;;;;5.80;3.63;;;15.50;99.90;;;;;;4973134;28;20231;-84
2022/07/02 05:43:34;;;;;;;9.20;3.08;;;15.50;99.90;;;;;;4975216;28;20185;-83
2022/07/02 05:45:59;;;;;;;4.45;3.05;;;15.50;99.90;;;;;;4972525;28;20565;-82
2022/07/02 05:48:25;;;;;;;9.82;3.30;;;15.60;99.90;;;;;;4973432;28;20564;-83
2022/07/02 05:50:51;;;;;;;8.50;3.33;;;15.60;99.90;;;;;;4973306;28;20187;-83
2022/07/02 05:53:17;;;;;;;5.63;3.38;;;15.60;99.90;;;;;;4975233;28;20565;-84
2022/07/02 05:55:42;;;;;;;8.85;3.20;;;15.60;99.90;;;;;;4971664;28;20573;-83
2022/07/02 05:58:08;;;;;;;6.22;3.25;;;15.70;99.90;;;;;;4975131;28;20239;-84
2022/07/02 06:00:34;;;;;;;4.40;2.83;;;15.70;99.90;;;;;;4973586;28;20268;-83
2022/07/02 06:03:00;;;;;;;6.00;2.53;;;15.80;99.90;;;;;;4974592;28;20188;-84
2022/07/02 06:08:10;;;;;;;11.13;3.33;;;15.80;99.90;;;;;;4956159;28;20220;-83
2022/07/02 06:10:36;;;;;;;4.15;3.03;;;15.90;99.90;;;;;;4968263;28;20574;-84
2022/07/02 06:13:02;;;;;;;4.57;2.45;;;16.00;99.90;;;;;;4973762;28;20172;-84
2022/07/02 06:15:28;;;;;;;6.00;2.60;;;16.00;99.90;;;;;;4973782;28;20228;-84
2022/07/02 06:17:59;;;;;;;4.30;3.00;;;16.10;99.90;;;;;;4972994;28;20247;-84
2022/07/02 06:20:25;;;;;;;6.05;3.05;;;16.10;99.90;;;;;;4973344;28;20208;-85
2022/07/02 06:22:50;;;;;;;7.57;2.95;;;16.20;99.90;;;;;;4972628;28;20231;-84
2022/07/02 06:25:16;;;;;;;3.33;2.40;;;16.20;99.90;;;;;;4972978;28;20208;-84
2022/07/02 06:27:42;;;;;;;3.78;2.60;;;16.30;99.90;;;;;;4973854;28;20247;-84
2022/07/02 06:30:08;;;;;;;3.58;2.92;;;16.40;99.90;;;;;;4992109;28;20191;-84
2022/07/02 06:32:34;;;;;;;6.75;3.35;;;16.40;99.90;;;;;;4977186;28;20230;-84
2022/07/02 06:34:59;;;;;;;2.85;2.50;;;16.50;99.90;;;;;;4969525;28;20624;-84
2022/07/02 06:37:25;;;;;;;3.10;2.30;;;16.60;99.90;;;;;;4959348;29;20208;-83
2022/07/02 06:39:51;;;;;;;3.40;2.38;;;16.70;99.90;;;;;;4975406;28;20275;-84
2022/07/02 06:42:22;;;;;;;3.35;2.38;;;16.80;99.90;;;;;;4977359;28;20192;-84
2022/07/02 06:44:51;;;;;;;7.72;2.50;;;16.90;99.90;;;;;;4973439;28;20181;-83
2022/07/02 06:47:18;;;;;;;3.65;2.30;;;17.00;99.90;;;;;;4977233;28;20180;-84
2022/07/02 06:49:44;;;;;;;4.28;2.20;;;17.20;99.90;;;;;;4976660;28;20303;-83
2022/07/02 06:52:10;;;;;;;3.85;2.10;;;17.30;99.90;;;;;;4977052;28;20173;-85
2022/07/02 06:54:37;;;;;;;11.00;2.92;;;17.40;99.90;;;;;;4974752;28;20192;-85
2022/07/02 06:57:04;;;;;;;7.90;2.10;;;17.60;99.90;;;;;;4976929;28;20180;-84
2022/07/02 06:59:29;;;;;;;3.45;2.10;;;17.70;99.90;;;;;;4975693;28;20193;-84
2022/07/02 07:01:55;;;;;;;2.42;1.85;;;17.90;99.90;;;;;;4975372;28;20230;-84
2022/07/02 07:04:21;;;;;;;4.03;1.80;;;18.00;99.90;;;;;;4973727;28;20196;-85
2022/07/02 07:06:51;;;;;;;3.88;1.65;;;18.20;99.90;;;;;;4975549;28;20258;-85
2022/07/02 07:09:18;;;;;;;4.35;1.73;;;18.40;99.90;;;;;;4976040;28;20247;-86
2022/07/02 07:11:44;;;;;;;2.88;1.50;;;18.60;99.90;;;;;;4976287;28;20216;-87
2022/07/02 07:14:09;;;;;;;3.13;1.52;;;18.70;99.90;;;;;;4971692;28;20252;-85
2022/07/02 07:16:35;;;;;;;4.45;2.10;;;18.90;99.90;;;;;;4976795;28;20180;-85
2022/07/02 07:19:09;;;;;;;3.20;1.42;;;19.10;99.90;;;;;;4977022;28;20212;-86
2022/07/02 07:21:37;;;;;;;5.03;1.33;;;19.30;99.90;;;;;;4975587;28;20203;-84
2022/07/02 07:24:03;;;;;;;4.93;1.33;;;19.50;99.90;;;;;;4967165;28;20299;-84
2022/07/02 07:26:29;;;;;;;5.53;1.60;;;19.70;99.90;;;;;;4967307;28;20188;-84
2022/07/02 07:28:55;;;;;;;3.30;1.08;;;19.80;99.90;;;;;;4967857;28;20212;-84
2022/07/02 07:31:21;;;;;;;4.22;1.30;;;20.00;99.90;;;;;;4970826;28;20189;-84
2022/07/02 07:33:52;;;;;;;3.13;1.20;;;20.10;99.90;;;;;;4975727;28;20185;-85
2022/07/02 07:36:21;;;;;;;1.58;1.20;;;20.10;98.30;;;;;;4976660;28;20235;-87
2022/07/02 07:38:48;;;;;;;2.25;1.10;;;20.30;98.20;;;;;;4977143;28;20184;-86
2022/07/02 07:41:14;;;;;;;3.30;0.88;;;20.30;98.40;;;;;;4974147;28;20184;-84
2022/07/02 07:43:39;;;;;;;1.70;0.98;;;20.40;96.50;;;;;;4963287;28;20192;-86
2022/07/02 07:46:07;;;;;;;3.50;0.93;;;20.40;96.30;;;;;;4975912;28;20518;-86
2022/07/02 07:48:33;;;;;;;4.22;1.10;;;20.50;97.30;;;;;;4975860;28;20212;-85
2022/07/02 07:50:59;;;;;;;1.27;0.90;;;20.60;96.10;;;;;;4975966;28;20192;-86
2022/07/02 07:53:25;;;;;;;2.78;1.00;;;20.60;95.70;;;;;;4974167;28;20275;-85
2022/07/02 07:55:52;;;;;;;4.20;0.80;;;20.70;96.10;;;;;;4991303;28;20192;-85
2022/07/02 07:58:17;;;;;;;2.33;0.95;;;20.90;96.40;;;;;;4973169;28;20219;-86
2022/07/02 08:00:44;;;;;;;1.23;0.75;;;21.00;95.80;;;;;;4970929;28;20212;-90
2022/07/02 08:03:10;;;;;;;2.92;0.90;;;21.00;94.70;;;;;;4976306;28;20545;-88
2022/07/02 08:05:36;;;;;;;1.98;0.93;;;21.10;95.70;;;;;;4976036;28;20187;-85
2022/07/02 08:08:02;;;;;;;2.70;0.70;;;21.20;94.60;;;;;;4975936;28;20575;-87
2022/07/02 08:10:28;;;;;;;3.92;0.80;;;21.40;95.20;;;;;;4975993;28;20232;-86
2022/07/02 08:12:54;;;;;;;1.45;0.60;;;21.50;95.30;;;;;;4977395;28;20169;-86
2022/07/02 08:15:24;;;;;;;2.97;1.00;;;21.50;93.10;;;;;;4975841;28;20219;-87
2022/07/02 08:17:50;;;;;;;3.75;0.70;;;21.50;94.30;;;;;;4975897;28;20181;-87
2022/07/02 08:20:16;;;;;;;3.67;1.00;;;21.60;94.10;;;;;;4976317;28;20658;-87
2022/07/02 08:22:46;;;;;;;3.42;1.00;;;21.50;93.10;;;;;;4976239;28;20176;-87
2022/07/02 08:25:15;;;;;;;5.95;0.93;;;21.50;92.70;;;;;;4976634;28;20172;-87
2022/07/02 08:27:42;;;;;;;7.28;1.00;;;21.60;92.20;;;;;;4977377;28;20256;-87
2022/07/02 08:30:09;;;;;;;4.15;0.98;;;21.70;92.70;;;;;;4977229;28;20208;-87
2022/07/02 08:32:35;;;;;;;2.80;1.00;;;21.80;92.70;;;;;;4975489;28;20176;-87
2022/07/02 08:35:03;;;;;;;2.30;0.85;;;21.90;92.80;;;;;;4975478;28;20189;-88
2022/07/02 08:37:29;;;;;;;2.88;0.85;;;22.00;93.30;;;;;;4975553;28;20177;-88
2022/07/02 08:39:55;;;;;;;3.63;0.88;;;22.20;94.00;;;;;;4975932;28;20191;-88
2022/07/02 08:42:26;;;;;;;2.05;0.90;;;22.20;92.40;;;;;;4975872;28;20198;-87
2022/07/02 08:44:53;;;;;;;3.65;0.82;;;22.20;91.00;;;;;;4975735;28;20177;-88
2022/07/02 08:47:20;;;;;;;3.13;0.93;;;22.20;92.60;;;;;;4976112;28;20185;-88
2022/07/02 08:49:47;;;;;;;1.55;0.82;;;22.20;93.10;;;;;;4975546;28;20614;-86
2022/07/02 08:52:18;;;;;;;2.58;0.90;;;22.30;92.60;;;;;;4974549;28;20239;-87
2022/07/02 08:54:45;;;;;;;4.18;0.80;;;22.30;91.90;;;;;;4976461;28;20573;-89
2022/07/02 08:57:14;;;;;;;3.10;0.93;;;22.50;94.00;;;;;;4975700;28;20215;-87
2022/07/02 08:59:40;;;;;;;1.63;0.75;;;22.60;91.30;;;;;;4975847;28;20181;-89
2022/07/02 09:02:06;;;;;;;4.93;0.80;;;22.70;92.70;;;;;;4976839;28;20168;-88
2022/07/02 09:04:34;;;;;;;3.63;0.98;;;22.80;92.80;;;;;;4975322;28;20932;-86
2022/07/02 09:07:03;;;;;;;1.13;0.93;;;22.90;92.80;;;;;;4975279;28;20181;-86
2022/07/02 09:09:30;;;;;;;3.35;0.80;;;22.80;91.70;;;;;;4975102;28;20667;-88
2022/07/02 09:11:57;;;;;;;3.30;0.70;;;22.90;91.30;;;;;;4975218;28;20176;-88
2022/07/02 09:14:23;;;;;;;2.88;1.08;;;23.00;91.90;;;;;;4975104;28;20184;-87
2022/07/02 09:16:53;;;;;;;3.28;0.77;;;23.10;91.30;;;;;;4976697;28;20173;-88
2022/07/02 09:19:18;;;;;;;3.80;0.80;;;23.20;90.60;;;;;;4975283;28;20199;-89
2022/07/02 09:21:49;;;;;;;2.50;0.80;;;23.20;91.30;;;;;;4975456;28;20176;-90
2022/07/02 09:24:27;;;;;;;3.08;0.80;;;23.40;92.00;;;;;;4975359;28;20272;-88
2022/07/02 09:27:20;;;;;;;3.65;0.90;;;23.50;90.60;;;;;;4976523;28;20165;-91
2022/07/02 09:29:47;;;;;;;3.15;0.80;;;23.50;90.90;;;;;;4972250;28;20216;-89
2022/07/02 09:32:19;;;;;;;3.00;0.77;;;23.50;89.90;;;;;;4976625;28;20623;-88
2022/07/02 09:34:47;;;;;;;2.28;1.00;;;23.60;90.50;;;;;;4955965;28;20181;-88
2022/07/02 09:37:25;;;;;;;2.03;0.90;;;23.60;90.60;;;;;;4963688;28;20184;-87
2022/07/02 09:39:52;;;;;;;3.00;0.80;;;23.40;90.40;;;;;;4974670;28;20187;-89
2022/07/02 09:42:25;;;;;;;2.50;0.60;;;23.40;90.60;;;;;;4975430;28;20176;-90
2022/07/02 09:44:51;;;;;;;1.98;0.93;;;23.40;91.10;;;;;;4975474;28;20275;-88
2022/07/02 09:47:29;;;;;;;4.07;0.82;;;23.40;91.00;;;;;;4973713;28;20268;-90
2022/07/02 09:49:55;;;;;;;2.20;0.80;;;23.20;90.50;;;;;;4975405;28;20216;-90
2022/07/02 09:52:20;;;;;;;1.73;0.90;;;23.00;91.00;;;;;;4975358;28;20181;-91
2022/07/02 09:54:46;;;;;;;1.20;0.73;;;23.20;89.20;;;;;;4975174;28;20186;-91
2022/07/02 09:57:18;;;;;;;3.25;0.80;;;23.00;90.40;;;;;;4975417;28;20235;-91
2022/07/02 09:59:44;;;;;;;5.78;0.90;;;23.10;90.20;;;;;;4975309;28;20169;-89
2022/07/02 10:02:24;;;;;;;25.40;1.10;;;23.10;90.30;;;;;;4976127;28;20184;-92
2022/07/02 10:04:51;;;;;;;3.20;1.05;;;23.30;91.90;;;;;;4956378;28;20173;-92
2022/07/02 10:07:22;;;;;;;2.67;1.00;;;23.50;91.60;;;;;;4956968;28;20173;-91
2022/07/02 10:09:51;;;;;;;1.08;0.80;;;23.60;90.50;;;;;;4956023;29;20237;-92
2022/07/02 10:12:19;;;;;;;3.75;0.85;;;23.40;89.20;;;;;;4957027;28;20177;-91
2022/07/02 10:14:46;;;;;;;4.15;0.70;;;23.20;87.90;;;;;;4957073;28;20181;-91
2022/07/02 10:17:24;;;;;;;1.58;0.90;;;23.30;91.10;;;;;;4956069;29;20571;-91
2022/07/02 10:19:56;;;;;;;1.35;0.73;;;23.50;89.70;;;;;;4955811;29;20173;-93
2022/07/02 10:22:22;;;;;;;2.10;0.82;;;23.40;88.90;;;;;;4955901;29;20185;-93
2022/07/02 10:24:50;;;;;;;3.47;0.98;;;23.40;88.80;;;;;;4955910;29;20192;-93
2022/07/02 10:27:20;;;;;;;2.35;0.85;;;23.20;89.20;;;;;;4955741;29;20181;-91
2022/07/02 10:29:46;;;;;;;3.13;0.95;;;23.00;90.10;;;;;;4955570;29;20227;-92
2022/07/02 10:32:40;;;;;;;2.63;0.80;;;22.90;91.00;;;;;;4955973;29;20613;-93
2022/07/02 10:35:11;;;;;;;2.58;0.80;;;23.20;91.30;;;;;;4956691;28;20252;-92
2022/07/02 10:37:46;;;;;;;1.95;0.70;;;23.60;90.10;;;;;;4973152;28;20557;-90
2022/07/02 10:40:18;;;;;;;7.45;0.70;;;24.00;90.50;;;;;;4956537;29;20173;-91
2022/07/02 10:42:50;;;;;;;1.80;1.02;;;24.40;89.30;;;;;;4955598;29;20177;-92
2022/07/02 10:45:21;;;;;;;2.03;0.68;;;24.40;87.50;;;;;;4955740;29;20249;-91
2022/07/02 10:47:58;;;;;;;2.33;0.90;;;24.10;87.30;;;;;;4955706;29;20165;-92
2022/07/02 10:50:45;;;;;;;2.17;0.90;;;24.00;86.90;;;;;;4955552;29;20620;-91
2022/07/02 10:53:18;;;;;;;1.95;0.88;;;23.90;87.40;;;;;;4955695;29;20170;-90
2022/07/02 10:55:53;;;;;;;2.42;0.90;;;23.60;88.30;;;;;;4955379;29;20276;-91
2022/07/02 10:58:30;;;;;;;3.13;0.93;;;23.50;86.90;;;;;;4955628;29;20239;-92
2022/07/02 11:00:56;;;;;;;1.67;0.75;;;23.40;86.60;;;;;;4955501;29;20169;-92
2022/07/02 11:03:24;;;;;;;1.58;0.80;;;23.60;87.60;;;;;;4963681;28;20189;-89
2022/07/02 11:06:01;;;;;;;1.92;0.80;;;23.90;86.50;;;;;;4975569;28;20260;-89
2022/07/02 11:08:50;;;;;;;2.95;0.77;;;24.30;86.80;;;;;;4974833;28;20230;-90
2022/07/02 11:11:26;;;;;;;4.82;1.23;;;24.50;88.10;;;;;;4957110;28;20204;-91
2022/07/02 11:14:00;;;;;;;4.05;0.85;;;24.80;87.90;;;;;;4965818;28;20176;-91
2022/07/02 11:16:31;;;;;;;2.53;1.00;;;25.00;86.60;;;;;;4974773;28;20177;-91
2022/07/02 11:18:58;;;;;;;2.15;0.90;;;24.90;85.80;;;;;;4968064;28;20198;-90
2022/07/02 11:21:25;;;;;;;2.17;0.90;;;24.60;83.90;;;;;;4958950;29;20178;-92
2022/07/02 11:23:52;;;;;;;1.83;0.90;;;24.20;86.40;;;;;;4975553;28;20188;-93
2022/07/02 11:26:27;;;;;;;2.92;0.85;;;23.90;87.90;;;;;;4970538;28;20196;-89
2022/07/02 11:28:54;;;;;;;3.03;0.60;;;23.80;86.80;;;;;;4970002;28;20219;-90
2022/07/02 11:31:22;;;;;;;1.85;0.80;;;24.10;87.90;;;;;;4960169;28;20218;-91
2022/07/02 11:33:54;;;;;;;2.75;0.80;;;24.70;87.10;;;;;;4968182;28;20287;-91
2022/07/02 11:36:21;;;;;;;1.80;0.80;;;24.70;84.90;;;;;;4960485;28;20181;-92
2022/07/02 11:39:07;;;;;;;1.98;0.65;;;24.70;84.90;;;;;;4962309;28;20247;-92
2022/07/02 11:41:37;;;;;;;1.45;0.88;;;24.70;86.80;;;;;;4962743;28;20503;-90
2022/07/02 11:44:17;;;;;;;2.70;0.82;;;24.70;86.80;;;;;;4965422;28;20667;-93
2022/07/02 11:46:47;;;;;;;1.33;0.63;;;24.50;86.20;;;;;;4965966;28;20638;-92
2022/07/02 11:49:24;;;;;;;2.05;0.77;;;24.20;86.60;;;;;;4961348;28;20217;-92
2022/07/02 11:51:51;;;;;;;1.60;0.80;;;24.20;87.30;;;;;;4967710;28;20259;-92
2022/07/02 11:54:18;;;;;;;2.05;0.80;;;24.50;86.70;;;;;;4966265;28;20258;-91
2022/07/02 11:56:46;;;;;;;1.45;1.00;;;24.60;84.80;;;;;;4961149;28;20193;-90
2022/07/02 11:59:24;;;;;;;1.60;0.80;;;24.50;85.60;;;;;;4969259;28;20188;-93
2022/07/02 12:01:51;;;;;;;0.68;0.57;;;24.50;87.20;;;;;;4970944;28;20196;-92
2022/07/02 12:04:20;;;;;;;2.50;0.65;;;24.70;90.60;;;;;;4968792;28;20194;-92
2022/07/02 12:06:48;;;;;;;2.42;0.73;;;24.60;85.40;;;;;;4968900;28;20193;-92
2022/07/02 12:09:19;;;;;;;1.15;0.70;;;24.50;84.60;;;;;;4963469;28;20240;-92
2022/07/02 12:11:47;;;;;;;0.98;0.60;;;24.30;80.70;;;;;;4962459;28;20628;-93
2022/07/02 12:14:14;;;;;;;2.45;0.70;;;24.20;84.00;;;;;;4966758;28;20201;-92
2022/07/02 12:16:46;;;;;;;1.90;0.60;;;24.40;87.50;;;;;;4964304;28;20184;-91
2022/07/02 12:19:16;;;;;;;2.63;0.90;;;24.80;86.70;;;;;;4967275;28;20193;-92
2022/07/02 12:21:42;;;;;;;1.50;0.50;;;25.20;85.50;;;;;;4960610;28;20203;-92
2022/07/02 12:24:22;;;;;;;1.40;0.60;;;25.60;85.00;;;;;;4959767;28;20181;-89
2022/07/02 12:26:50;;;;;;;2.53;0.60;;;25.90;80.70;;;;;;4963436;28;20183;-93
2022/07/02 12:32:23;;;;;;;2.15;0.60;;;26.10;81.10;;;;;;4972862;28;20219;-92
2022/07/02 12:35:10;;;;;;;0.55;0.50;;;26.00;83.70;;;;;;4960768;28;20185;-92
2022/07/02 12:37:43;;;;;;;1.35;0.60;;;26.20;81.00;;;;;;4960225;28;20530;-90
2022/07/02 12:40:09;;;;;;;1.33;0.50;;;26.40;81.60;;;;;;4976743;28;20239;-90
2022/07/02 12:42:54;;;;;;;1.45;0.60;;;26.70;80.40;;;;;;4976387;28;20271;-94
2022/07/02 12:45:50;;;;;;;1.42;0.80;;;27.00;81.20;;;;;;4965664;28;20273;-90
2022/07/02 12:48:16;;;;;;;1.25;0.50;;;27.30;81.50;;;;;;4957967;28;20274;-90
2022/07/02 12:50:44;;;;;;;1.85;0.60;;;27.40;78.20;;;;;;4956918;29;20557;-90
2022/07/02 12:53:20;;;;;;;1.58;0.63;;;27.30;80.30;;;;;;4957221;29;20181;-91